Time;durP1;ratioP1;P1;durP2;ratioP2;P2;SDS_P1;SDS_P2;PMS_P1;PMS_P2;Temp;Humidity;BMP_temperature;BMP_pressure;BME280_temperature;BME280_humidity;BME280_pressure;Samples;Min_cycle;Max_cycle;Signal;HPM_P1;HPM_P2
2022/05/24 00:00:16;;;;;;;3.70;2.87;;;;;;;9.20;58.07;101023.41;4973138;28;20061;-68
2022/05/24 00:02:42;;;;;;;7.70;3.37;;;;;;;9.23;57.28;101039.06;4973709;28;20045;-68
2022/05/24 00:05:10;;;;;;;7.30;3.23;;;;;;;9.21;57.55;101035.72;4973432;28;20106;-66
2022/05/24 00:07:37;;;;;;;5.53;2.45;;;;;;;9.22;58.15;101032.91;4973532;28;20137;-68
2022/05/24 00:10:05;;;;;;;6.30;2.63;;;;;;;9.17;57.50;101040.50;4973566;28;20050;-68
2022/05/24 00:12:31;;;;;;;8.23;2.65;;;;;;;9.13;57.79;101043.59;4973467;28;20042;-66
2022/05/24 00:17:41;;;;;;;6.77;2.87;;;;;;;8.98;57.57;101025.50;4986308;28;20094;-66
2022/05/24 00:20:07;;;;;;;4.33;2.73;;;;;;;8.97;57.49;101029.13;4974625;28;20034;-67
2022/05/24 00:22:33;;;;;;;7.33;3.43;;;;;;;9.00;56.71;101043.94;4973818;28;20055;-67
2022/05/24 00:25:01;;;;;;;7.17;3.10;;;;;;;8.97;56.84;101039.75;4973651;28;20038;-66
2022/05/24 00:27:29;;;;;;;6.00;3.00;;;;;;;8.94;57.42;101042.69;4973451;28;20051;-66
2022/05/24 00:29:54;;;;;;;8.30;3.03;;;;;;;8.89;56.83;101047.59;4973950;28;20030;-68
2022/05/24 00:32:20;;;;;;;4.13;2.83;;;;;;;8.87;57.22;101057.53;4973854;28;20565;-65
2022/05/24 00:34:46;;;;;;;6.80;3.00;;;;;;;8.84;57.40;101055.16;4973794;28;20142;-65
2022/05/24 00:37:11;;;;;;;8.63;3.47;;;;;;;8.75;57.38;101050.72;4973714;28;20042;-66
2022/05/24 00:39:37;;;;;;;3.70;2.40;;;;;;;8.75;57.59;101050.72;4973491;28;20513;-67
2022/05/24 00:42:13;;;;;;;8.40;2.20;;;;;;;8.81;57.74;101060.75;4973388;28;20118;-67
2022/05/24 00:44:46;;;;;;;6.27;3.80;;;;;;;8.76;57.96;101055.03;4973187;28;20125;-67
2022/05/24 00:47:23;;;;;;;5.57;2.80;;;;;;;8.73;57.62;101062.47;4973039;28;20046;-66
2022/05/24 00:49:57;;;;;;;5.23;4.23;;;;;;;8.55;57.25;101049.91;4973417;28;20154;-66
2022/05/24 00:52:30;;;;;;;6.73;2.93;;;;;;;8.62;57.93;101066.09;4973693;28;20048;-66
2022/05/24 00:54:59;;;;;;;9.43;3.40;;;;;;;8.60;58.10;101073.38;4973803;28;20113;-66
2022/05/24 00:58:01;;;;;;;6.32;2.72;;;;;;;8.62;57.98;101079.38;4974514;28;20073;-67
2022/05/24 01:00:27;;;;;;;5.80;2.73;;;;;;;8.52;58.48;101070.59;4963838;28;20056;-66
2022/05/24 01:02:52;;;;;;;10.43;2.90;;;;;;;8.51;58.03;101072.41;4956789;28;20041;-66
2022/05/24 01:05:25;;;;;;;7.27;2.80;;;;;;;8.48;59.52;101074.53;4974238;28;20054;-67
2022/05/24 01:07:52;;;;;;;6.47;2.67;;;;;;;8.40;60.07;101088.50;4973662;28;20038;-65
2022/05/24 01:10:22;;;;;;;5.93;3.20;;;;;;;8.31;60.51;101083.97;4975501;28;20049;-66
2022/05/24 01:13:10;;;;;;;7.13;2.93;;;;;;;8.30;60.55;101085.81;4976808;28;20117;-68
2022/05/24 01:15:36;;;;;;;4.15;2.70;;;;;;;8.22;59.79;101087.47;4977918;28;20034;-67
2022/05/24 01:18:03;;;;;;;5.23;3.67;;;;;;;8.19;59.99;101085.13;4977308;28;20061;-68
2022/05/24 01:20:28;;;;;;;7.20;2.93;;;;;;;8.14;59.38;101079.38;4976569;28;20494;-67
2022/05/24 01:23:04;;;;;;;9.43;4.03;;;;;;;8.19;60.91;101087.78;4977390;28;20040;-67
2022/05/24 01:25:45;;;;;;;7.37;3.33;;;;;;;8.18;60.39;101089.59;4977557;28;20509;-66
2022/05/24 01:28:17;;;;;;;6.97;2.83;;;;;;;8.17;61.63;101093.22;4977472;28;20497;-67
2022/05/24 01:30:43;;;;;;;6.20;3.53;;;;;;;8.11;62.13;101093.78;4977328;28;20097;-68
2022/05/24 01:36:10;;;;;;;6.03;3.60;;;;;;;8.03;60.36;101094.44;4961900;28;20050;-67
2022/05/24 01:38:39;;;;;;;7.27;3.07;;;;;;;8.03;59.85;101090.94;4977851;28;20125;-65
2022/05/24 01:41:05;;;;;;;;;;;;;;;8.12;59.25;101095.44;4977659;28;20539;-68
2022/05/24 01:43:31;;;;;;;4.43;3.40;;;;;;;8.04;59.09;101084.66;4976471;28;19975;-66
2022/05/24 01:46:06;;;;;;;5.07;3.73;;;;;;;8.11;59.77;101100.91;4977500;28;20121;-67
2022/05/24 01:48:38;;;;;;;6.00;2.73;;;;;;;8.05;59.36;101089.00;4977445;28;20520;-66
2022/05/24 01:51:05;;;;;;;7.00;3.57;;;;;;;8.03;61.05;101089.13;4976588;28;20049;-67
2022/05/24 01:53:37;;;;;;;9.00;3.53;;;;;;;8.05;59.90;101091.66;4977001;28;20045;-68
2022/05/24 01:56:06;;;;;;;5.83;2.90;;;;;;;8.03;59.32;101091.78;4977101;28;20074;-66
2022/05/24 01:58:35;;;;;;;6.07;3.73;;;;;;;8.01;59.16;101092.91;4977221;28;20083;-67
2022/05/24 02:01:25;;;;;;;11.33;3.80;;;;;;;8.01;59.33;101085.78;4976719;28;20049;-67
2022/05/24 02:03:50;;;;;;;13.13;4.07;;;;;;;8.02;61.14;101083.97;4977086;28;20042;-68
2022/05/24 02:06:25;;;;;;;11.03;3.37;;;;;;;8.03;60.11;101093.59;4971096;28;20521;-67
2022/05/24 02:08:52;;;;;;;10.87;3.63;;;;;;;8.00;58.34;101093.88;4976547;28;20065;-66
2022/05/24 02:11:23;;;;;;;11.57;3.03;;;;;;;8.07;57.69;101097.66;4976732;28;20042;-68
2022/05/24 02:13:51;;;;;;;8.17;3.40;;;;;;;8.09;57.05;101108.97;4976459;28;20379;-68
2022/05/24 02:16:21;;;;;;;5.75;3.15;;;;;;;8.15;56.17;101100.47;4976882;28;20371;-68
2022/05/24 02:18:49;;;;;;;7.93;3.60;;;;;;;8.21;55.87;101099.91;4976749;28;20426;-67
2022/05/24 02:21:14;;;;;;;6.97;3.40;;;;;;;8.27;55.56;101104.66;4975871;28;20478;-66
2022/05/24 02:23:43;;;;;;;5.77;2.90;;;;;;;8.28;55.46;101105.50;4975704;28;20086;-67
2022/05/24 02:26:10;;;;;;;12.00;3.35;;;;;;;8.31;55.05;101105.22;4976557;28;20089;-68
2022/05/24 02:28:42;;;;;;;6.87;3.43;;;;;;;8.34;56.59;101104.97;4975829;28;20478;-68
2022/05/24 02:31:17;;;;;;;5.33;3.20;;;;;;;8.34;55.59;101111.09;4975583;28;20069;-69
2022/05/24 02:33:43;;;;;;;8.93;3.00;;;;;;;8.37;55.01;101115.28;4975651;28;20489;-66
2022/05/24 02:36:08;;;;;;;9.87;3.27;;;;;;;8.37;53.77;101110.81;4975801;28;20038;-68
2022/05/24 02:38:34;;;;;;;7.53;3.80;;;;;;;8.45;53.55;101111.97;4976216;28;20039;-67
2022/05/24 02:43:44;;;;;;;7.00;3.63;;;;;;;8.54;52.94;101111.13;4975563;28;20042;-67
2022/05/24 02:46:10;;;;;;;9.00;3.93;;;;;;;8.45;52.10;101096.88;4976582;28;20135;-68
2022/05/24 02:48:36;;;;;;;8.03;3.90;;;;;;;8.68;51.37;101114.19;4975217;28;20035;-67
2022/05/24 02:51:03;;;;;;;10.73;3.10;;;;;;;8.74;51.04;101122.56;4976533;28;20106;-68
2022/05/24 02:53:28;;;;;;;7.77;3.13;;;;;;;8.62;49.29;101098.78;4975660;28;20038;-70
2022/05/24 02:55:54;;;;;;;6.33;3.47;;;;;;;9.80;47.27;101132.81;4974468;28;20031;-67
2022/05/24 02:58:19;;;;;;;4.77;3.40;;;;;;;11.73;41.85;101131.03;4973983;28;20133;-68
2022/05/24 03:00:45;;;;;;;7.13;3.30;;;;;;;13.69;37.54;101130.06;4976221;28;20054;-69
2022/05/24 03:03:10;;;;;;;6.70;3.50;;;;;;;15.17;34.48;101113.56;4976659;28;20513;-67
2022/05/24 03:05:37;;;;;;;4.90;3.27;;;;;;;16.32;31.52;101132.59;4974012;28;20498;-67
2022/05/24 03:10:47;;;;;;;3.13;2.83;;;;;;;17.27;29.24;101144.81;4975081;28;20514;-68
2022/05/24 03:15:57;;;;;;;3.83;3.00;;;;;;;18.04;27.08;101152.72;4976394;28;20045;-67
2022/05/24 03:18:24;;;;;;;4.23;3.03;;;;;;;18.03;26.85;101142.97;4975255;28;20066;-67
2022/05/24 03:20:49;;;;;;;5.67;3.07;;;;;;;18.27;27.08;101152.38;4975201;28;20058;-67
2022/05/24 03:23:16;;;;;;;4.70;3.43;;;;;;;18.41;27.16;101151.34;4974566;28;20035;-66
2022/05/24 03:25:42;;;;;;;5.10;3.40;;;;;;;18.62;26.98;101128.81;4974892;28;20145;-69
2022/05/24 03:28:08;;;;;;;3.93;2.80;;;;;;;18.85;26.67;101150.81;4973108;28;20494;-67
2022/05/24 03:30:42;;;;;;;3.45;2.95;;;;;;;18.41;26.62;101153.22;4974406;28;20085;-68
2022/05/24 03:33:08;;;;;;;3.13;2.77;;;;;;;18.03;26.77;101156.44;4975077;28;20129;-67
2022/05/24 03:35:33;;;;;;;3.93;2.53;;;;;;;17.73;27.26;101152.38;4974772;28;20081;-68
2022/05/24 03:37:59;;;;;;;4.47;2.93;;;;;;;17.41;26.43;101143.88;4974028;28;20034;-66
2022/05/24 03:40:24;;;;;;;4.73;2.73;;;;;;;16.81;27.01;101163.31;4974434;28;20460;-66
2022/05/24 03:42:52;;;;;;;2.33;2.00;;;;;;;15.49;28.69;101154.50;4974126;28;20062;-66
2022/05/24 03:45:18;;;;;;;3.30;2.27;;;;;;;14.71;29.32;101152.22;4974092;28;20519;-67
2022/05/24 03:47:44;;;;;;;3.67;1.90;;;;;;;14.32;29.96;101166.53;4972981;28;20553;-68
2022/05/24 03:50:10;;;;;;;2.20;1.93;;;;;;;13.88;29.59;101180.50;4972775;28;20031;-67
2022/05/24 03:52:36;;;;;;;3.07;2.73;;;;;;;14.17;29.60;101163.81;4973780;28;20573;-68
2022/05/24 03:55:02;;;;;;;3.77;2.90;;;;;;;15.57;27.92;101173.19;4973895;28;20379;-66
2022/05/24 04:00:14;;;;;;;3.73;2.47;;;;;;;17.90;23.76;101159.88;4973908;28;20039;-67
2022/05/24 04:02:40;;;;;;;3.10;2.90;;;;;;;18.33;23.27;101161.50;4974347;28;20038;-66
2022/05/24 04:05:07;;;;;;;2.80;2.60;;;;;;;18.71;22.52;101169.91;4973886;28;20066;-67
2022/05/24 04:07:35;;;;;;;2.80;2.50;;;;;;;18.42;23.13;101171.06;4974462;28;20130;-65
2022/05/24 04:10:02;;;;;;;3.75;3.22;;;;;;;18.69;22.45;101156.59;4974368;28;20047;-67
2022/05/24 04:12:28;;;;;;;3.53;3.23;;;;;;;18.60;22.44;101168.63;4973795;28;20050;-67
2022/05/24 04:14:55;;;;;;;5.50;3.00;;;;;;;19.16;22.14;101158.28;4973776;28;20041;-67
2022/05/24 04:17:20;;;;;;;4.10;2.80;;;;;;;19.11;21.46;101162.66;4974154;28;20038;-67
2022/05/24 04:19:46;;;;;;;2.47;2.27;;;;;;;18.59;21.88;101166.97;4973598;28;20041;-67
2022/05/24 04:22:11;;;;;;;2.83;2.63;;;;;;;18.66;22.10;101167.81;4974083;28;20042;-67
2022/05/24 04:24:37;;;;;;;3.30;3.00;;;;;;;18.59;21.56;101172.34;4974303;28;20125;-67
2022/05/24 04:27:05;;;;;;;4.50;2.30;;;;;;;18.23;22.02;101170.81;4974552;28;20453;-65
2022/05/24 04:29:30;;;;;;;2.88;2.65;;;;;;;18.46;22.10;101167.75;4973813;28;20121;-65
2022/05/24 04:31:56;;;;;;;4.47;2.40;;;;;;;18.58;21.68;101166.13;4973784;28;20050;-67
2022/05/24 04:34:21;;;;;;;2.77;2.10;;;;;;;18.39;21.73;101160.69;4973156;28;20406;-68
2022/05/24 04:36:47;;;;;;;3.67;2.67;;;;;;;18.38;21.78;101180.59;4974976;28;20026;-67
2022/05/24 04:39:13;;;;;;;7.00;2.33;;;;;;;17.98;21.36;101176.94;4974426;28;20042;-67
2022/05/24 04:44:23;;;;;;;8.70;2.73;;;;;;;17.39;21.90;101190.88;4972730;28;20031;-67
2022/05/24 04:49:33;;;;;;;5.47;2.57;;;;;;;17.59;22.04;101183.75;4972514;28;20035;-67
2022/05/24 04:51:59;;;;;;;3.83;2.80;;;;;;;17.82;21.57;101203.19;4972351;28;20039;-67
2022/05/24 04:54:25;;;;;;;2.30;2.00;;;;;;;17.62;22.03;101202.19;4972383;28;20043;-68
2022/05/24 04:56:50;;;;;;;5.73;2.50;;;;;;;17.71;22.20;101197.53;4972402;28;20058;-67
2022/05/24 04:59:18;;;;;;;6.23;3.10;;;;;;;17.99;21.71;101200.16;4972222;28;20031;-68
2022/05/24 05:01:45;;;;;;;2.92;2.10;;;;;;;17.81;21.96;101192.59;4973180;28;20414;-66
2022/05/24 05:04:11;;;;;;;2.67;2.27;;;;;;;17.71;21.69;101200.22;4973030;28;20035;-67
2022/05/24 05:06:42;;;;;;;4.07;2.60;;;;;;;17.58;22.27;101193.69;4975929;28;20054;-66
2022/05/24 05:09:09;;;;;;;4.60;2.10;;;;;;;16.98;21.95;101199.66;4974240;28;20138;-67
2022/05/24 05:11:34;;;;;;;2.70;2.23;;;;;;;16.57;22.85;101207.53;4974364;28;20049;-67
2022/05/24 05:13:59;;;;;;;3.37;1.60;;;;;;;16.28;23.40;101203.91;4942717;28;20070;-64
2022/05/24 05:16:25;;;;;;;2.53;1.83;;;;;;;15.11;24.64;101196.66;4983328;28;20062;-67
2022/05/24 05:18:51;;;;;;;3.10;1.90;;;;;;;13.48;25.88;101196.69;4977897;28;20422;-64
2022/05/24 05:21:16;;;;;;;6.30;3.03;;;;;;;12.58;27.62;101204.72;4978147;28;20046;-67
2022/05/24 05:23:42;;;;;;;3.37;1.73;;;;;;;12.04;28.51;101204.25;4979814;28;20045;-66
2022/05/24 05:26:07;;;;;;;3.57;2.10;;;;;;;11.83;29.00;101205.63;4974881;28;20042;-71
2022/05/24 05:28:32;;;;;;;4.33;1.83;;;;;;;11.64;28.87;101212.03;4974428;28;20042;-62
2022/05/24 05:33:44;;;;;;;4.10;1.67;;;;;;;11.45;30.22;101221.09;4972376;28;20043;-63
2022/05/24 05:36:11;;;;;;;3.77;1.90;;;;;;;11.27;30.02;101220.28;4980228;28;20058;-73
2022/05/24 05:38:37;;;;;;;5.83;1.70;;;;;;;11.24;30.53;101221.44;4980397;28;20049;-70
2022/05/24 05:41:04;;;;;;;3.27;1.97;;;;;;;11.40;30.63;101215.38;4978263;28;20042;-70
2022/05/24 05:43:30;;;;;;;6.50;2.17;;;;;;;11.49;30.43;101225.94;4977570;28;20042;-68
2022/05/24 05:46:00;;;;;;;2.87;1.60;;;;;;;11.47;30.97;101225.25;4975438;28;20130;-70
2022/05/24 05:48:26;;;;;;;4.73;2.17;;;;;;;11.39;31.25;101214.56;4973945;28;20038;-69
2022/05/24 05:50:51;;;;;;;2.97;1.67;;;;;;;11.45;30.87;101239.75;4973855;28;20045;-69
2022/05/24 05:53:18;;;;;;;3.10;2.13;;;;;;;11.39;31.03;101233.22;4972843;28;20533;-69
2022/05/24 05:55:44;;;;;;;2.20;1.77;;;;;;;11.32;31.08;101232.19;4972546;28;20066;-70
2022/05/24 05:58:11;;;;;;;3.63;2.20;;;;;;;11.11;32.02;101215.69;4975722;28;20121;-69
2022/05/24 06:00:38;;;;;;;5.80;2.00;;;;;;;11.15;32.20;101239.22;4976357;28;20043;-68
2022/05/24 06:03:03;;;;;;;3.50;1.93;;;;;;;11.13;31.69;101238.53;4977499;28;20031;-67
2022/05/24 06:05:31;;;;;;;2.23;2.03;;;;;;;11.07;32.20;101241.81;4975586;28;20153;-61
2022/05/24 06:07:58;;;;;;;6.22;1.95;;;;;;;11.12;32.73;101244.84;4976207;28;20121;-66
2022/05/24 06:10:25;;;;;;;3.67;1.63;;;;;;;11.10;32.92;101238.00;4984916;28;20062;-69
2022/05/24 06:12:51;;;;;;;2.20;1.53;;;;;;;11.09;32.99;101234.50;4961959;28;20070;-69
2022/05/24 06:15:17;;;;;;;2.77;1.80;;;;;;;11.15;32.81;101235.69;4976261;28;20046;-66
2022/05/24 06:17:49;;;;;;;3.57;2.27;;;;;;;11.25;32.66;101240.94;4981437;28;20043;-65
2022/05/24 06:20:17;;;;;;;8.07;2.57;;;;;;;11.38;32.66;101236.88;4978040;28;20191;-64
2022/05/24 06:22:42;;;;;;;3.13;2.20;;;;;;;11.43;31.94;101241.75;4977344;28;20511;-66
2022/05/24 06:25:09;;;;;;;3.27;1.80;;;;;;;11.49;32.12;101235.78;4976027;28;20477;-67
2022/05/24 06:27:34;;;;;;;2.57;2.20;;;;;;;11.56;31.72;101243.97;4962909;28;20136;-66
2022/05/24 06:30:00;;;;;;;3.43;2.20;;;;;;;11.52;31.83;101235.47;4984628;28;20117;-70
2022/05/24 06:32:26;;;;;;;3.03;1.93;;;;;;;11.51;31.85;101244.47;4962299;28;20487;-70
2022/05/24 06:34:53;;;;;;;2.57;1.73;;;;;;;11.46;31.31;101252.09;4977360;28;20058;-72
2022/05/24 06:37:21;;;;;;;4.60;1.93;;;;;;;11.33;31.50;101239.19;4977968;28;20031;-71
2022/05/24 06:39:47;;;;;;;3.72;1.70;;;;;;;11.34;31.19;101250.69;4978959;28;20414;-68
2022/05/24 06:42:13;;;;;;;3.57;1.97;;;;;;;11.29;31.69;101242.31;4979916;28;20038;-68
2022/05/24 06:44:39;;;;;;;4.07;1.70;;;;;;;11.43;31.15;101253.25;4961030;28;20065;-67
2022/05/24 06:47:05;;;;;;;4.07;1.60;;;;;;;11.45;30.67;101261.09;4976982;28;20042;-69
2022/05/24 06:49:31;;;;;;;6.97;2.80;;;;;;;11.54;31.48;101261.97;4958400;28;20129;-68
2022/05/24 06:51:56;;;;;;;3.37;2.43;;;;;;;11.60;31.01;101269.38;4975946;28;20050;-69
2022/05/24 06:54:22;;;;;;;3.10;1.90;;;;;;;11.67;31.64;101267.75;4977123;28;20031;-70
2022/05/24 06:56:48;;;;;;;4.73;1.60;;;;;;;11.69;30.64;101255.09;4975928;28;20065;-72
2022/05/24 07:04:42;;;;;;;7.40;2.37;;;;;;;11.67;31.70;101275.75;4976116;28;20038;-65
2022/05/24 07:07:08;;;;;;;8.10;2.60;;;;;;;11.58;31.45;101244.69;4976190;28;20122;-72
2022/05/24 07:09:34;;;;;;;4.80;2.27;;;;;;;11.69;31.28;101257.75;4975960;28;20088;-67
2022/05/24 07:12:00;;;;;;;3.60;2.10;;;;;;;11.78;31.19;101273.66;4974738;28;20125;-68
2022/05/24 07:14:26;;;;;;;3.50;2.10;;;;;;;11.73;31.56;101267.09;4975604;28;20039;-73
2022/05/24 07:16:52;;;;;;;2.57;1.90;;;;;;;11.73;31.16;101269.78;4976090;28;20081;-76
2022/05/24 07:19:21;;;;;;;4.13;2.30;;;;;;;11.65;31.25;101246.56;4976213;28;20112;-78
2022/05/24 07:21:50;;;;;;;2.73;1.90;;;;;;;11.77;30.79;101261.28;4963284;28;20030;-68
2022/05/24 07:24:19;;;;;;;3.33;1.60;;;;;;;11.74;31.32;101256.28;4983927;28;20039;-61
2022/05/24 07:26:45;;;;;;;4.13;2.00;;;;;;;11.71;31.11;101253.94;4974365;28;20049;-64
2022/05/24 07:29:14;;;;;;;3.37;2.10;;;;;;;11.83;31.23;101262.53;4976189;28;20128;-65
2022/05/24 07:31:41;;;;;;;5.93;2.07;;;;;;;11.79;31.10;101250.50;4979481;28;20478;-65
2022/05/24 07:34:08;;;;;;;3.20;2.00;;;;;;;11.95;31.10;101247.91;4957632;28;20031;-63
2022/05/24 07:36:35;;;;;;;6.90;2.50;;;;;;;12.01;31.15;101239.28;4945232;28;20053;-64
2022/05/24 07:39:01;;;;;;;3.40;2.77;;;;;;;12.15;31.07;101251.19;4973985;28;20054;-65
2022/05/24 07:46:56;;;;;;;5.80;1.80;;;;;;;12.23;30.66;101251.22;4957100;28;20480;-71
2022/05/24 07:49:22;;;;;;;7.93;1.90;;;;;;;12.30;30.58;101262.06;4975295;28;20047;-69
2022/05/24 07:51:47;;;;;;;5.67;2.20;;;;;;;12.25;30.39;101251.03;4976515;28;20498;-69
2022/05/24 07:54:13;;;;;;;3.73;2.47;;;;;;;12.20;30.55;101240.03;4973516;28;20039;-66
2022/05/24 07:56:38;;;;;;;6.47;2.40;;;;;;;12.42;29.69;101260.78;4973418;28;20476;-65
2022/05/24 07:59:04;;;;;;;7.40;2.40;;;;;;;12.49;29.41;101261.81;4977432;28;20043;-65
2022/05/24 08:01:33;;;;;;;3.10;2.00;;;;;;;12.56;29.83;101262.81;4977480;28;20045;-64
2022/05/24 08:04:00;;;;;;;2.53;1.87;;;;;;;12.42;29.66;101250.09;4966847;28;20069;-65
2022/05/24 08:06:27;;;;;;;5.03;2.60;;;;;;;12.54;30.15;101262.16;4958247;28;20059;-63
2022/05/24 08:08:53;;;;;;;2.97;1.87;;;;;;;12.65;28.86;101261.84;4976815;28;20046;-68
2022/05/24 08:11:18;;;;;;;22.77;3.03;;;;;;;12.63;29.24;101257.66;4973870;28;20034;-62
2022/05/24 08:13:44;;;;;;;8.37;2.17;;;;;;;12.66;29.27;101257.31;4973205;28;20038;-62
2022/05/24 08:16:09;;;;;;;4.97;1.87;;;;;;;12.67;28.98;101257.16;4973217;28;20490;-65
2022/05/24 08:18:35;;;;;;;4.97;2.20;;;;;;;12.73;27.57;101260.22;4955999;28;20066;-67
2022/05/24 08:21:00;;;;;;;5.53;1.90;;;;;;;12.68;28.00;101276.72;4955325;28;20031;-78
2022/05/24 08:23:30;;;;;;;5.87;1.83;;;;;;;12.68;28.16;101261.50;4973667;28;20034;-80
2022/05/24 08:25:56;;;;;;;5.63;2.00;;;;;;;12.47;28.19;101215.72;4972894;28;20054;-65
2022/05/24 08:28:22;;;;;;;6.67;2.20;;;;;;;12.80;28.04;101264.72;4955546;28;20141;-65
2022/05/24 08:30:50;;;;;;;4.87;1.83;;;;;;;12.79;27.74;101256.88;4973148;28;20046;-68
2022/05/24 08:33:16;;;;;;;2.73;1.90;;;;;;;12.84;28.40;101257.19;4973157;28;20050;-68
2022/05/24 08:35:43;;;;;;;4.43;1.80;;;;;;;12.96;26.98;101264.72;4972993;28;20134;-66
2022/05/24 08:38:12;;;;;;;2.90;1.67;;;;;;;12.99;26.54;101268.91;4972798;28;20042;-66
2022/05/24 08:40:40;;;;;;;5.70;2.10;;;;;;;12.87;26.70;101275.59;4972856;28;20411;-69
2022/05/24 08:43:30;;;;;;;5.25;1.88;;;;;;;12.87;26.46;101264.88;4972979;28;20616;-67
2022/05/24 08:48:59;;;;;;;5.37;2.00;;;;;;;12.90;26.49;101260.03;4942888;28;20050;-66
2022/05/24 08:51:28;;;;;;;7.13;2.53;;;;;;;12.93;25.50;101258.88;4973067;28;20027;-65
2022/05/24 08:54:15;;;;;;;3.00;1.67;;;;;;;13.07;25.39;101254.72;4973082;28;20467;-65
2022/05/24 08:56:46;;;;;;;3.27;1.70;;;;;;;13.21;25.23;101259.41;4972703;28;20691;-64
2022/05/24 08:59:28;;;;;;;2.10;1.90;;;;;;;13.25;24.74;101256.25;4972709;28;20612;-65
2022/05/24 09:01:56;;;;;;;5.10;1.53;;;;;;;13.21;24.07;101251.41;4972998;28;20041;-63
2022/05/24 09:05:26;;;;;;;8.67;2.37;;;;;;;13.22;24.30;101253.91;5150658;27;20365;-67
2022/05/24 09:08:27;;;;;;;22.50;4.63;;;;;;;13.29;23.70;101273.63;5130389;28;20058;-67
2022/05/24 09:11:21;;;;;;;5.20;1.70;;;;;;;13.21;22.61;101272.78;5130202;28;20047;-70
2022/05/24 09:14:03;;;;;;;7.97;2.00;;;;;;;13.17;22.65;101250.91;5130442;28;20474;-71
2022/05/24 09:16:57;;;;;;;3.90;2.33;;;;;;;13.30;23.49;101264.63;5131479;28;20130;-67
2022/05/24 09:19:26;;;;;;;2.80;1.77;;;;;;;13.31;22.42;101263.63;5112512;28;20046;-68
2022/05/24 09:21:53;;;;;;;3.63;1.77;;;;;;;13.35;22.34;101264.09;5135645;28;20084;-70
2022/05/24 09:24:33;;;;;;;7.30;2.40;;;;;;;13.44;22.73;101264.94;5137502;28;20060;-68
2022/05/24 09:27:08;;;;;;;2.20;1.70;;;;;;;13.49;21.53;101275.97;5136818;28;20035;-66
2022/05/24 09:29:35;;;;;;;2.20;1.70;;;;;;;13.47;20.50;101275.28;5130365;28;20405;-65
2022/05/24 09:32:09;;;;;;;3.53;1.90;;;;;;;13.48;21.04;101268.94;5130385;28;20114;-67
2022/05/24 09:34:38;;;;;;;20.67;3.53;;;;;;;13.58;21.16;101266.91;5129729;28;20031;-66
2022/05/24 09:37:24;;;;;;;7.37;2.07;;;;;;;13.63;21.40;101261.91;5130596;28;20062;-67
2022/05/24 09:40:23;;;;;;;5.87;1.60;;;;;;;13.65;20.41;101259.88;5121313;28;20047;-70
2022/05/24 09:42:49;;;;;;;4.40;1.77;;;;;;;13.70;21.22;101254.03;5092723;28;20080;-69
2022/05/24 09:45:18;;;;;;;3.20;1.60;;;;;;;13.73;20.94;101254.50;5137483;28;20031;-70
2022/05/24 09:47:44;;;;;;;2.67;1.47;;;;;;;13.84;21.09;101259.50;5132575;28;20065;-68
2022/05/24 09:50:32;;;;;;;6.30;1.80;;;;;;;13.87;20.74;101263.66;5112695;28;20028;-66
2022/05/24 09:53:19;;;;;;;3.05;1.83;;;;;;;13.93;20.94;101252.28;5130210;28;20441;-68
2022/05/24 09:55:46;;;;;;;3.77;1.77;;;;;;;13.90;21.16;101245.44;5129739;28;20036;-68
2022/05/24 09:58:30;;;;;;;2.73;1.90;;;;;;;14.00;21.20;101258.63;5135483;28;20056;-68
2022/05/24 10:01:09;;;;;;;3.37;1.63;;;;;;;14.09;22.13;101251.38;5135473;28;20057;-70
2022/05/24 10:03:38;;;;;;;2.83;1.80;;;;;;;14.07;21.81;101258.75;5132400;27;20084;-69
2022/05/24 10:06:23;;;;;;;3.20;1.80;;;;;;;14.04;21.73;101248.38;5147554;28;20043;-71
2022/05/24 10:09:23;;;;;;;3.53;1.50;;;;;;;14.10;21.50;101266.44;5143293;28;20050;-75
2022/05/24 10:12:06;;;;;;;1.70;1.50;;;;;;;14.13;20.78;101264.25;5140969;28;20046;-72
2022/05/24 10:14:45;;;;;;;3.03;1.77;;;;;;;14.10;19.90;101267.28;5133016;28;20055;-68
2022/05/24 10:17:38;;;;;;;2.23;1.70;;;;;;;14.12;19.75;101259.06;5118489;28;20042;-70
2022/05/24 10:20:23;;;;;;;3.53;1.93;;;;;;;14.13;19.15;101260.72;5115524;28;20530;-71
2022/05/24 10:23:06;;;;;;;3.40;2.00;;;;;;;14.12;18.70;101253.69;5098162;28;20035;-69
2022/05/24 10:25:35;;;;;;;5.73;2.37;;;;;;;14.09;17.87;101260.25;5115805;28;20502;-69
2022/05/24 10:28:13;;;;;;;7.50;2.83;;;;;;;14.07;18.41;101250.72;5115027;28;20389;-71
2022/05/24 10:31:17;;;;;;;11.00;2.63;;;;;;;14.05;18.01;101261.59;5096245;28;20059;-73
2022/05/24 10:40:03;;;;;;;2.83;1.90;;;;;;;14.08;17.48;101261.25;5114936;28;20105;-70
2022/05/24 10:43:03;;;;;;;5.80;2.60;;;;;;;14.11;17.90;101260.06;5114634;28;20047;-70
2022/05/24 10:45:49;;;;;;;6.20;2.60;;;;;;;14.16;18.03;101252.34;5114355;28;20040;-74
2022/05/24 10:48:50;;;;;;;2.50;2.03;;;;;;;14.20;18.26;101238.44;5114678;28;20425;-67
2022/05/24 10:51:32;;;;;;;4.10;2.90;;;;;;;14.33;18.49;101251.28;5027933;28;20054;-69
2022/05/24 10:54:12;;;;;;;6.13;2.10;;;;;;;14.35;17.91;101261.81;5114092;28;20044;-70
2022/05/24 10:56:48;;;;;;;7.87;2.60;;;;;;;14.25;18.03;101257.50;5114162;28;20379;-71
2022/05/24 10:59:23;;;;;;;6.23;2.30;;;;;;;14.23;17.80;101264.06;5095948;28;20050;-69
2022/05/24 11:01:56;;;;;;;6.37;2.83;;;;;;;14.18;17.53;101256.53;5095574;28;20482;-69
2022/05/24 11:04:30;;;;;;;4.97;2.47;;;;;;;14.22;17.57;101257.03;5114211;28;20158;-68
2022/05/24 11:07:11;;;;;;;5.47;2.30;;;;;;;14.31;17.46;101255.97;5113884;28;20043;-73
2022/05/24 11:09:45;;;;;;;3.37;2.00;;;;;;;14.21;17.57;101260.72;5113749;28;20073;-68
2022/05/24 11:12:21;;;;;;;3.50;2.90;;;;;;;14.20;18.14;101264.41;5113906;28;20043;-70
2022/05/24 11:14:51;;;;;;;5.70;3.17;;;;;;;14.19;18.00;101278.81;5114015;28;20100;-69
2022/05/24 11:17:20;;;;;;;6.67;2.33;;;;;;;14.25;18.32;101272.75;5113655;28;20031;-69
2022/05/24 11:19:49;;;;;;;3.70;2.30;;;;;;;14.23;18.42;101277.44;5114009;28;20042;-65
2022/05/24 11:22:42;;;;;;;11.10;2.23;;;;;;;14.26;19.21;101287.81;5095441;28;20050;-65
2022/05/24 11:25:22;;;;;;;4.53;2.37;;;;;;;14.16;18.86;101289.84;5113594;28;20038;-65
2022/05/24 11:27:57;;;;;;;2.17;1.90;;;;;;;14.17;19.06;101278.16;5112693;28;20114;-65
2022/05/24 11:30:28;;;;;;;2.30;2.10;;;;;;;14.20;19.46;101280.47;5113483;28;20561;-64
2022/05/24 11:33:16;;;;;;;5.67;1.97;;;;;;;14.29;19.91;101284.78;5094973;28;20421;-65
2022/05/24 11:35:50;;;;;;;1.92;1.75;;;;;;;14.35;19.97;101273.38;5113907;28;20031;-69
2022/05/24 11:38:41;;;;;;;6.50;2.27;;;;;;;14.36;20.22;101269.69;5113594;28;20051;-67
2022/05/24 11:41:12;;;;;;;2.73;1.80;;;;;;;14.38;20.74;101278.38;5113414;28;20089;-67
2022/05/24 11:43:43;;;;;;;4.20;2.03;;;;;;;14.37;21.02;101278.53;5112929;28;20092;-66
2022/05/24 11:46:33;;;;;;;1.80;1.60;;;;;;;14.45;21.95;101278.53;5095175;28;20035;-68
2022/05/24 11:49:09;;;;;;;6.07;2.40;;;;;;;14.48;21.82;101273.69;5113172;28;20092;-72
2022/05/24 11:51:45;;;;;;;7.30;1.80;;;;;;;14.56;22.55;101280.84;5095055;28;20028;-66
2022/05/24 11:54:23;;;;;;;2.43;1.60;;;;;;;14.62;22.33;101280.13;5094873;28;20516;-67
2022/05/24 11:57:00;;;;;;;2.78;1.80;;;;;;;14.54;22.98;101266.78;5113253;28;20028;-70
2022/05/24 11:59:49;;;;;;;1.93;1.73;;;;;;;14.50;22.82;101262.78;5112952;28;20047;-69
2022/05/24 12:02:21;;;;;;;2.30;1.57;;;;;;;14.51;22.75;101278.69;5112953;28;20023;-68
2022/05/24 12:08:22;;;;;;;2.20;1.63;;;;;;;14.64;22.99;101255.81;5112880;28;20452;-65
2022/05/24 12:10:51;;;;;;;2.80;1.60;;;;;;;14.76;22.99;101265.16;5113118;28;20079;-70
2022/05/24 12:13:22;;;;;;;;;;;;;;;14.86;23.24;101265.75;5078254;28;20056;-72
2022/05/24 12:15:51;;;;;;;5.17;2.40;;;;;;;14.57;23.05;101213.66;5112985;28;19919;-72
2022/05/24 12:18:20;;;;;;;2.73;1.83;;;;;;;14.83;23.38;101250.00;5112464;28;20088;-70
2022/05/24 12:20:48;;;;;;;5.43;2.07;;;;;;;14.96;23.55;101260.97;5113007;28;20480;-73
2022/05/24 12:23:14;;;;;;;2.92;1.70;;;;;;;15.03;24.01;101267.28;5112408;28;20035;-69
2022/05/24 12:25:54;;;;;;;3.50;1.90;;;;;;;15.12;24.27;101271.59;5112527;28;20039;-72
2022/05/24 12:28:52;;;;;;;4.03;1.93;;;;;;;15.14;23.10;101274.09;5094463;28;20130;-69
2022/05/24 12:31:18;;;;;;;1.98;1.70;;;;;;;14.99;23.59;101265.97;5112315;28;20036;-71